createdAt,value
2017-11-27T00:00:17.722Z,965.35
2017-11-27T00:01:17.695Z,965.31
2017-11-27T00:03:12.085Z,965.28
2017-11-27T00:04:12.080Z,965.30
2017-11-27T00:06:05.478Z,965.28
2017-11-27T00:07:05.476Z,965.28
2017-11-27T00:08:58.871Z,965.35
2017-11-27T00:09:58.818Z,965.24
2017-11-27T00:11:52.202Z,965.31
2017-11-27T00:12:52.233Z,965.25
2017-11-27T00:14:45.613Z,965.26
2017-11-27T00:15:45.592Z,965.31
2017-11-27T00:17:38.978Z,965.32
2017-11-27T00:18:38.978Z,965.32
2017-11-27T00:20:32.385Z,965.30
2017-11-27T00:21:32.373Z,965.35
2017-11-27T00:23:25.739Z,965.33
2017-11-27T00:24:25.732Z,965.34
2017-11-27T00:26:19.140Z,965.36
2017-11-27T00:27:19.110Z,965.35
2017-11-27T00:29:12.489Z,965.35
2017-11-27T00:30:12.501Z,965.38
2017-11-27T00:32:05.909Z,965.36
2017-11-27T00:33:05.870Z,965.36
2017-11-27T00:34:59.246Z,965.44
2017-11-27T00:35:59.262Z,965.36
2017-11-27T00:37:52.648Z,965.37
2017-11-27T00:38:52.640Z,965.41
2017-11-27T00:40:46.009Z,965.45
2017-11-27T00:41:46.012Z,965.39
2017-11-27T00:43:39.426Z,965.41
2017-11-27T00:44:39.447Z,965.43
2017-11-27T00:46:32.803Z,965.38
2017-11-27T00:47:32.798Z,965.33
2017-11-27T00:49:26.187Z,965.40
2017-11-27T00:50:26.166Z,965.34
2017-11-27T00:52:19.556Z,965.37
2017-11-27T00:53:19.541Z,965.39
2017-11-27T00:55:12.928Z,965.38
2017-11-27T00:56:12.925Z,965.44
2017-11-27T00:58:06.349Z,965.42
2017-11-27T00:59:06.345Z,965.39
2017-11-27T01:00:59.729Z,965.40
2017-11-27T01:01:59.710Z,965.41
2017-11-27T01:03:53.117Z,965.40
2017-11-27T01:04:53.102Z,965.45
2017-11-27T01:06:46.468Z,965.43
2017-11-27T01:07:46.470Z,965.45
2017-11-27T01:09:39.897Z,965.48
2017-11-27T01:10:39.853Z,965.46
2017-11-27T01:12:33.228Z,965.49
2017-11-27T01:13:33.252Z,965.50
2017-11-27T01:15:26.634Z,965.50
2017-11-27T01:16:26.611Z,965.52
2017-11-27T01:18:19.980Z,965.55
2017-11-27T01:19:19.981Z,965.57
2017-11-27T01:21:13.379Z,965.56
2017-11-27T01:22:13.366Z,965.53
2017-11-27T01:24:06.764Z,965.49
2017-11-27T01:25:06.749Z,965.49
2017-11-27T01:27:00.156Z,965.50
2017-11-27T01:28:00.133Z,965.47
2017-11-27T01:29:53.527Z,965.45
2017-11-27T01:30:53.517Z,965.41
2017-11-27T01:32:46.904Z,965.43
2017-11-27T01:33:46.884Z,965.40
2017-11-27T01:35:40.273Z,965.48
2017-11-27T01:36:40.281Z,965.48
2017-11-27T01:38:33.674Z,965.49
2017-11-27T01:39:33.662Z,965.51
2017-11-27T01:41:27.024Z,965.44
2017-11-27T01:42:27.018Z,965.48
2017-11-27T01:44:20.421Z,965.53
2017-11-27T01:45:20.409Z,965.52
2017-11-27T01:47:13.808Z,965.49
2017-11-27T01:48:13.779Z,965.47
2017-11-27T01:50:07.182Z,965.46
2017-11-27T01:51:07.158Z,965.48
2017-11-27T01:53:00.553Z,965.47
2017-11-27T01:54:00.541Z,965.43
2017-11-27T01:55:53.912Z,965.51
2017-11-27T01:56:53.928Z,965.45
2017-11-27T01:58:47.346Z,965.45
2017-11-27T01:59:47.332Z,965.44
2017-11-27T02:01:40.708Z,965.46
2017-11-27T02:02:40.705Z,965.47
2017-11-27T02:04:34.101Z,965.46
2017-11-27T02:05:34.103Z,965.47
2017-11-27T02:07:27.470Z,965.48
2017-11-27T02:08:27.463Z,965.50
2017-11-27T02:10:20.858Z,965.49
2017-11-27T02:11:20.867Z,965.52
2017-11-27T02:13:14.221Z,965.53
2017-11-27T02:14:14.219Z,965.51
2017-11-27T02:16:07.618Z,965.58
2017-11-27T02:17:07.599Z,965.59
2017-11-27T02:19:00.977Z,965.56
2017-11-27T02:20:00.981Z,965.59
2017-11-27T02:21:54.375Z,965.63
2017-11-27T02:22:54.358Z,965.64
2017-11-27T02:24:47.770Z,965.62
2017-11-27T02:25:47.752Z,965.60
2017-11-27T02:27:41.161Z,965.64
2017-11-27T02:28:41.154Z,965.62
2017-11-27T02:30:34.521Z,965.65
2017-11-27T02:31:34.509Z,965.67
2017-11-27T02:33:27.905Z,965.65
2017-11-27T02:34:27.893Z,965.63
2017-11-27T02:36:21.292Z,965.61
2017-11-27T02:37:21.290Z,965.61
2017-11-27T02:39:14.648Z,965.61
2017-11-27T02:40:14.643Z,965.61
2017-11-27T02:42:08.050Z,965.60
2017-11-27T02:43:08.045Z,965.56
2017-11-27T02:45:01.414Z,965.54
2017-11-27T02:46:01.412Z,965.51
2017-11-27T02:47:54.809Z,965.49
2017-11-27T02:48:54.807Z,965.46
2017-11-27T02:50:48.163Z,965.50
2017-11-27T02:51:48.191Z,965.49
2017-11-27T02:53:41.578Z,965.44
2017-11-27T02:54:41.569Z,965.43
2017-11-27T02:56:34.919Z,965.46
2017-11-27T02:57:34.923Z,965.44
2017-11-27T02:59:28.320Z,965.41
2017-11-27T03:00:28.299Z,965.40
2017-11-27T03:02:21.711Z,965.40
2017-11-27T03:03:21.677Z,965.38
2017-11-27T03:05:15.081Z,965.38
2017-11-27T03:06:15.057Z,965.41
2017-11-27T03:08:08.436Z,965.39
2017-11-27T03:09:08.448Z,965.38
2017-11-27T03:11:01.838Z,965.43
2017-11-27T03:12:01.812Z,965.38
2017-11-27T03:13:55.192Z,965.35
2017-11-27T03:14:55.194Z,965.36
2017-11-27T03:16:48.594Z,965.32
2017-11-27T03:17:48.582Z,965.33
2017-11-27T03:19:41.955Z,965.28
2017-11-27T03:20:41.946Z,965.26
2017-11-27T03:22:35.351Z,965.14
2017-11-27T03:23:35.325Z,965.18
2017-11-27T03:25:29.702Z,965.17
2017-11-27T03:26:29.699Z,965.24
2017-11-27T03:28:23.108Z,965.18
2017-11-27T03:29:23.114Z,965.24
2017-11-27T03:31:16.486Z,965.25
2017-11-27T03:32:16.471Z,965.26
2017-11-27T03:34:09.849Z,965.28
2017-11-27T03:35:09.870Z,965.33
2017-11-27T03:37:03.244Z,965.39
2017-11-27T03:38:03.226Z,965.34
2017-11-27T03:39:56.618Z,965.35
2017-11-27T03:40:56.597Z,965.38
2017-11-27T03:42:50.015Z,965.34
2017-11-27T03:43:50.009Z,965.37
2017-11-27T03:45:43.368Z,965.36
2017-11-27T03:46:43.364Z,965.40
2017-11-27T03:48:36.749Z,965.41
2017-11-27T03:49:36.732Z,965.43
2017-11-27T03:51:30.109Z,965.39
2017-11-27T03:52:30.128Z,965.40
2017-11-27T03:54:23.532Z,965.47
2017-11-27T03:55:23.519Z,965.47
2017-11-27T03:57:16.881Z,965.45
2017-11-27T03:58:16.874Z,965.45
2017-11-27T04:00:10.281Z,965.41
2017-11-27T04:01:10.258Z,965.37
2017-11-27T04:03:03.640Z,965.38
2017-11-27T04:04:03.638Z,965.36
2017-11-27T04:05:57.019Z,965.34
2017-11-27T04:06:57.000Z,965.30
2017-11-27T04:08:50.396Z,965.28
2017-11-27T04:09:50.392Z,965.30
2017-11-27T04:11:43.782Z,965.24
2017-11-27T04:12:43.770Z,965.27
2017-11-27T04:14:37.133Z,965.23
2017-11-27T04:15:37.132Z,965.20
2017-11-27T04:17:30.529Z,965.16
2017-11-27T04:18:30.510Z,965.21
2017-11-27T04:20:23.914Z,965.17
2017-11-27T04:21:23.931Z,965.21
2017-11-27T04:23:17.303Z,965.24
2017-11-27T04:24:17.272Z,965.20
2017-11-27T04:26:10.668Z,965.12
2017-11-27T04:27:10.663Z,965.12
2017-11-27T04:29:04.059Z,965.11
2017-11-27T04:30:04.044Z,965.04
2017-11-27T04:31:57.419Z,965.04
2017-11-27T04:32:57.414Z,965.04
2017-11-27T04:34:50.817Z,965.01
2017-11-27T04:35:50.825Z,964.95
2017-11-27T04:37:44.194Z,964.90
2017-11-27T04:38:44.197Z,964.86
2017-11-27T04:40:37.588Z,964.84
2017-11-27T04:41:37.557Z,964.80
2017-11-27T04:43:30.967Z,964.83
2017-11-27T04:44:30.940Z,964.84
2017-11-27T04:46:24.322Z,964.90
2017-11-27T04:47:24.340Z,964.92
2017-11-27T04:49:17.716Z,965.02
2017-11-27T04:50:17.708Z,965.06
2017-11-27T04:52:11.090Z,965.00
2017-11-27T04:53:11.081Z,965.04
2017-11-27T04:55:04.531Z,965.06
2017-11-27T04:56:04.496Z,965.03
2017-11-27T04:57:57.865Z,965.06
2017-11-27T04:58:57.861Z,965.09
2017-11-27T05:00:51.274Z,965.10
2017-11-27T05:01:51.257Z,965.07
2017-11-27T05:03:44.631Z,965.08
2017-11-27T05:04:44.647Z,965.10
2017-11-27T05:06:38.028Z,965.05
2017-11-27T05:07:38.033Z,965.06
2017-11-27T05:09:31.417Z,965.01
2017-11-27T05:10:31.450Z,965.01
2017-11-27T05:12:24.805Z,964.95
2017-11-27T05:13:24.792Z,964.87
2017-11-27T05:15:18.204Z,964.87
2017-11-27T05:16:18.202Z,964.84
2017-11-27T05:18:11.566Z,964.91
2017-11-27T05:19:11.573Z,964.94
2017-11-27T05:21:04.984Z,964.97
2017-11-27T05:22:04.917Z,965.01
2017-11-27T05:23:58.294Z,964.97
2017-11-27T05:24:58.301Z,965.01
2017-11-27T05:26:51.693Z,965.04
2017-11-27T05:27:51.700Z,965.02
2017-11-27T05:29:45.128Z,965.03
2017-11-27T05:30:45.079Z,965.07
2017-11-27T05:32:38.451Z,965.04
2017-11-27T05:33:38.464Z,965.06
2017-11-27T05:35:31.841Z,965.07
2017-11-27T05:36:31.833Z,965.06
2017-11-27T05:38:25.227Z,965.06
2017-11-27T05:39:25.203Z,965.08
2017-11-27T05:41:18.585Z,965.09
2017-11-27T05:42:18.617Z,965.09
2017-11-27T05:44:11.975Z,965.07
2017-11-27T05:45:11.972Z,965.07
2017-11-27T05:47:05.345Z,965.10
2017-11-27T05:48:05.353Z,965.10
2017-11-27T05:49:58.764Z,965.15
2017-11-27T05:50:58.735Z,965.15
2017-11-27T05:52:52.136Z,965.15
2017-11-27T05:53:52.113Z,965.14
2017-11-27T05:55:45.521Z,965.12
2017-11-27T05:56:45.531Z,965.11
2017-11-27T05:58:38.876Z,965.13
2017-11-27T05:59:38.864Z,965.14
2017-11-27T06:01:32.286Z,965.15
2017-11-27T06:02:32.252Z,965.08
2017-11-27T06:04:25.644Z,965.12
2017-11-27T06:05:25.641Z,965.08
2017-11-27T06:07:19.027Z,965.05
2017-11-27T06:08:19.013Z,965.05
2017-11-27T06:10:12.416Z,965.01
2017-11-27T06:11:12.409Z,964.97
2017-11-27T06:13:05.801Z,964.92
2017-11-27T06:14:05.789Z,964.95
2017-11-27T06:15:59.153Z,964.93
2017-11-27T06:16:59.173Z,964.94
2017-11-27T06:18:52.544Z,964.88
2017-11-27T06:19:52.533Z,964.95
2017-11-27T06:21:45.929Z,964.97
2017-11-27T06:22:45.946Z,964.96
2017-11-27T06:24:39.319Z,964.93
2017-11-27T06:25:39.347Z,964.91
2017-11-27T06:27:32.705Z,964.91
2017-11-27T06:28:32.679Z,964.91
2017-11-27T06:30:26.081Z,964.91
2017-11-27T06:31:26.071Z,964.91
2017-11-27T06:33:19.477Z,964.88
2017-11-27T06:34:19.451Z,964.82
2017-11-27T06:36:12.801Z,964.81
2017-11-27T06:37:12.833Z,964.84
2017-11-27T06:39:06.233Z,964.81
2017-11-27T06:40:06.224Z,964.81
2017-11-27T06:41:59.571Z,964.79
2017-11-27T06:42:59.568Z,964.82
2017-11-27T06:44:52.960Z,964.84
2017-11-27T06:45:52.957Z,964.85
2017-11-27T06:47:46.346Z,964.85
2017-11-27T06:48:46.329Z,964.83
2017-11-27T06:50:39.736Z,964.83
2017-11-27T06:51:39.733Z,964.83
2017-11-27T06:53:33.096Z,964.88
2017-11-27T06:54:33.103Z,964.91
2017-11-27T06:56:26.486Z,964.92
2017-11-27T06:57:26.477Z,964.87
2017-11-27T06:59:19.861Z,964.95
2017-11-27T07:00:19.874Z,964.95
2017-11-27T07:02:13.270Z,964.96
2017-11-27T07:03:13.268Z,964.96
2017-11-27T07:05:06.640Z,964.95
2017-11-27T07:06:06.658Z,964.91
2017-11-27T07:08:00.043Z,964.88
2017-11-27T07:09:00.011Z,964.92
2017-11-27T07:10:53.411Z,964.92
2017-11-27T07:11:53.425Z,964.94
2017-11-27T07:13:46.804Z,964.85
2017-11-27T07:14:46.781Z,964.85
2017-11-27T07:16:40.146Z,964.87
2017-11-27T07:17:40.146Z,964.90
2017-11-27T07:19:33.545Z,964.90
2017-11-27T07:20:33.540Z,964.91
2017-11-27T07:22:26.929Z,964.99
2017-11-27T07:23:26.912Z,964.97
2017-11-27T07:25:20.280Z,964.98
2017-11-27T07:26:20.295Z,964.99
2017-11-27T07:28:13.694Z,964.92
2017-11-27T07:29:13.668Z,964.89
2017-11-27T07:31:07.062Z,964.83
2017-11-27T07:32:07.068Z,964.88
2017-11-27T07:34:00.470Z,964.89
2017-11-27T07:35:00.442Z,964.92
2017-11-27T07:36:53.851Z,964.89
2017-11-27T07:37:53.846Z,964.88
2017-11-27T07:39:47.255Z,964.87
2017-11-27T07:40:47.226Z,964.91
2017-11-27T07:42:40.600Z,964.90
2017-11-27T07:43:40.594Z,964.94
2017-11-27T07:45:33.963Z,964.93
2017-11-27T07:46:33.985Z,964.96
2017-11-27T07:48:28.412Z,964.90
2017-11-27T07:49:28.329Z,964.92
2017-11-27T07:51:21.711Z,964.93
2017-11-27T07:52:21.737Z,964.90
2017-11-27T07:54:15.131Z,964.88
2017-11-27T07:55:15.100Z,964.84
2017-11-27T07:57:08.491Z,964.87
2017-11-27T07:58:08.495Z,964.86
2017-11-27T08:00:03.412Z,964.88
2017-11-27T08:01:01.895Z,964.86
2017-11-27T08:02:55.266Z,964.87
2017-11-27T08:03:55.249Z,964.85
2017-11-27T08:05:48.696Z,964.83
2017-11-27T08:06:48.637Z,964.84
2017-11-27T08:08:42.051Z,964.79
2017-11-27T08:09:42.013Z,964.80
2017-11-27T08:11:35.426Z,964.76
2017-11-27T08:12:35.455Z,964.78
2017-11-27T08:14:28.805Z,964.72
2017-11-27T08:15:28.872Z,964.71
2017-11-27T08:17:22.199Z,964.69
2017-11-27T08:18:22.161Z,964.70
2017-11-27T08:20:16.623Z,964.74
2017-11-27T08:21:16.604Z,964.74
2017-11-27T08:23:10.921Z,964.74
2017-11-27T08:24:10.924Z,964.76
2017-11-27T08:26:04.372Z,964.77
2017-11-27T08:27:04.315Z,964.82
2017-11-27T08:28:57.724Z,964.84
2017-11-27T08:29:57.730Z,964.79
2017-11-27T08:31:52.098Z,964.85
2017-11-27T08:32:52.119Z,964.78
2017-11-27T08:34:45.449Z,964.78
2017-11-27T08:35:45.445Z,964.76
2017-11-27T08:37:38.854Z,964.86
2017-11-27T08:38:38.834Z,964.77
2017-11-27T08:40:32.204Z,964.86
2017-11-27T08:41:32.250Z,964.85
2017-11-27T08:43:25.599Z,964.84
2017-11-27T08:44:25.589Z,964.83
2017-11-27T08:46:18.971Z,964.77
2017-11-27T08:47:18.979Z,964.76
2017-11-27T08:49:12.408Z,964.70
2017-11-27T08:50:12.385Z,964.70
2017-11-27T08:52:05.780Z,964.73
2017-11-27T08:53:05.806Z,964.71
2017-11-27T08:54:59.184Z,964.71
2017-11-27T08:55:59.185Z,964.67
2017-11-27T08:57:52.562Z,964.62
2017-11-27T08:58:52.579Z,964.65
2017-11-27T09:00:45.914Z,964.66
2017-11-27T09:01:45.936Z,964.62
2017-11-27T09:03:39.325Z,964.58
2017-11-27T09:04:39.312Z,964.64
2017-11-27T09:06:33.719Z,964.58
2017-11-27T09:07:33.677Z,964.55
2017-11-27T09:09:27.045Z,964.57
2017-11-27T09:10:27.023Z,964.61
2017-11-27T09:12:20.452Z,964.52
2017-11-27T09:13:20.444Z,964.53
2017-11-27T09:15:13.818Z,964.51
2017-11-27T09:16:13.816Z,964.52
2017-11-27T09:18:07.202Z,964.51
2017-11-27T09:19:07.186Z,964.47
2017-11-27T09:21:00.594Z,964.54
2017-11-27T09:22:00.594Z,964.50
2017-11-27T09:23:53.984Z,964.50
2017-11-27T09:24:53.962Z,964.62
2017-11-27T09:26:48.338Z,964.47
2017-11-27T09:27:48.333Z,964.54
2017-11-27T09:29:41.737Z,964.52
2017-11-27T09:30:41.771Z,964.53
2017-11-27T09:32:35.126Z,964.42
2017-11-27T09:33:35.707Z,964.39
2017-11-27T09:35:28.503Z,964.44
2017-11-27T09:36:28.505Z,964.37
2017-11-27T09:38:21.843Z,964.39
2017-11-27T09:39:21.895Z,964.41
2017-11-27T09:41:15.245Z,964.36
2017-11-27T09:42:15.244Z,964.38
2017-11-27T09:44:08.634Z,964.35
2017-11-27T09:45:08.656Z,964.32
2017-11-27T09:47:01.996Z,964.31
2017-11-27T09:48:01.981Z,964.28
2017-11-27T09:49:55.368Z,964.31
2017-11-27T09:50:55.393Z,964.29
2017-11-27T09:52:48.767Z,964.26
2017-11-27T09:53:48.754Z,964.27
2017-11-27T09:55:42.161Z,964.23
2017-11-27T09:56:42.133Z,964.22
2017-11-27T09:58:35.505Z,964.19
2017-11-27T09:59:35.508Z,964.23
2017-11-27T10:01:28.908Z,964.21
2017-11-27T10:02:28.900Z,964.21
2017-11-27T10:04:22.277Z,964.21
2017-11-27T10:05:22.278Z,964.21
2017-11-27T10:07:15.665Z,964.14
2017-11-27T10:08:15.669Z,964.11
2017-11-27T10:10:09.033Z,964.11
2017-11-27T10:11:09.046Z,964.10
2017-11-27T10:13:02.439Z,964.10
2017-11-27T10:14:02.458Z,964.16
2017-11-27T10:15:55.816Z,964.12
2017-11-27T10:16:55.874Z,964.07
2017-11-27T10:18:49.268Z,964.05
2017-11-27T10:19:49.246Z,964.06
2017-11-27T10:21:42.607Z,963.97
2017-11-27T10:22:42.610Z,963.98
2017-11-27T10:24:36.000Z,963.87
2017-11-27T10:25:36.000Z,963.89
2017-11-27T10:27:29.381Z,963.84
2017-11-27T10:28:29.369Z,963.82
2017-11-27T10:30:22.812Z,963.86
2017-11-27T10:31:22.787Z,963.88
2017-11-27T10:33:16.192Z,963.82
2017-11-27T10:34:16.173Z,963.78
2017-11-27T10:36:09.590Z,963.73
2017-11-27T10:37:09.571Z,963.82
2017-11-27T10:39:02.943Z,963.79
2017-11-27T10:40:02.933Z,963.79
2017-11-27T10:41:56.340Z,963.79
2017-11-27T10:42:56.317Z,963.76
2017-11-27T10:44:49.741Z,963.80
2017-11-27T10:45:49.690Z,963.76
2017-11-27T10:47:43.077Z,963.74
2017-11-27T10:48:43.106Z,963.75
2017-11-27T10:50:36.476Z,963.78
2017-11-27T10:51:36.513Z,963.75
2017-11-27T10:53:29.836Z,963.99
2017-11-27T10:54:29.837Z,963.66
2017-11-27T10:56:23.277Z,964.00
2017-11-27T10:57:23.257Z,963.86
2017-11-27T10:59:16.683Z,963.62
2017-11-27T11:00:16.648Z,963.63
2017-11-27T11:02:10.029Z,963.53
2017-11-27T11:03:10.039Z,963.49
2017-11-27T11:05:03.437Z,963.55
2017-11-27T11:06:03.429Z,963.50
2017-11-27T11:07:56.805Z,963.69
2017-11-27T11:08:56.806Z,963.74
2017-11-27T11:10:50.217Z,963.68
2017-11-27T11:11:50.210Z,963.72
2017-11-27T11:13:43.580Z,963.52
2017-11-27T11:14:43.585Z,963.55
2017-11-27T11:16:36.989Z,963.32
2017-11-27T11:17:36.974Z,963.13
2017-11-27T11:19:29.875Z,963.64
2017-11-27T11:20:29.868Z,963.74
2017-11-27T11:22:23.286Z,963.62
2017-11-27T11:23:23.268Z,963.12
2017-11-27T11:25:16.649Z,963.52
2017-11-27T11:26:16.658Z,963.50
2017-11-27T11:28:09.565Z,963.01
2017-11-27T11:29:09.555Z,963.47
2017-11-27T11:31:02.937Z,963.42
2017-11-27T11:32:02.948Z,963.47
2017-11-27T11:33:56.352Z,963.23
2017-11-27T11:34:56.345Z,963.14
2017-11-27T11:36:49.745Z,963.21
2017-11-27T11:37:49.732Z,963.10
2017-11-27T11:39:43.118Z,963.16
2017-11-27T11:40:43.126Z,963.12
2017-11-27T11:42:36.539Z,962.81
2017-11-27T11:43:36.548Z,963.03
2017-11-27T11:45:29.922Z,962.81
2017-11-27T11:46:29.923Z,962.69
2017-11-27T11:48:23.326Z,962.79
2017-11-27T11:49:23.313Z,962.77
2017-11-27T11:51:16.700Z,962.71
2017-11-27T11:52:16.708Z,962.74
2017-11-27T11:54:10.112Z,962.69
2017-11-27T11:55:10.107Z,962.59
2017-11-27T11:57:03.501Z,962.67
2017-11-27T11:58:03.491Z,962.61
2017-11-27T11:59:56.872Z,962.66
2017-11-27T12:00:56.884Z,962.58
2017-11-27T12:02:50.281Z,962.66
2017-11-27T12:03:50.264Z,962.58
2017-11-27T12:05:43.666Z,962.60
2017-11-27T12:06:43.668Z,962.54
2017-11-27T12:08:37.081Z,962.54
2017-11-27T12:09:37.078Z,962.53
2017-11-27T12:11:30.445Z,962.49
2017-11-27T12:12:30.458Z,962.53
2017-11-27T12:14:23.858Z,962.39
2017-11-27T12:15:23.845Z,962.34
2017-11-27T12:17:17.281Z,962.36
2017-11-27T12:18:17.245Z,962.36
2017-11-27T12:20:10.619Z,962.28
2017-11-27T12:21:10.624Z,962.30
2017-11-27T12:23:04.052Z,962.21
2017-11-27T12:24:04.009Z,962.14
2017-11-27T12:25:57.393Z,962.10
2017-11-27T12:26:57.395Z,962.14
2017-11-27T12:28:50.800Z,962.11
2017-11-27T12:29:50.785Z,962.09
2017-11-27T12:31:44.179Z,962.09
2017-11-27T12:32:44.378Z,961.92
2017-11-27T12:34:37.579Z,961.87
2017-11-27T12:35:37.562Z,961.90
2017-11-27T12:37:30.950Z,961.81
2017-11-27T12:38:30.948Z,961.89
2017-11-27T12:40:24.354Z,961.76
2017-11-27T12:41:24.336Z,961.81
2017-11-27T12:43:17.718Z,961.67
2017-11-27T12:44:17.720Z,961.75
2017-11-27T12:46:11.139Z,961.73
2017-11-27T12:47:11.119Z,961.73
2017-11-27T12:49:04.506Z,961.65
2017-11-27T12:50:04.503Z,961.73
2017-11-27T12:51:57.923Z,961.64
2017-11-27T12:52:57.893Z,961.74
2017-11-27T12:54:51.293Z,961.67
2017-11-27T12:55:51.309Z,961.63
2017-11-27T12:57:44.689Z,961.62
2017-11-27T12:58:44.671Z,961.67
2017-11-27T13:00:38.083Z,961.65
2017-11-27T13:01:38.082Z,961.62
2017-11-27T13:03:31.451Z,961.56
2017-11-27T13:04:31.470Z,961.50
2017-11-27T13:06:24.850Z,961.52
2017-11-27T13:07:24.833Z,961.51
2017-11-27T13:09:18.220Z,961.54
2017-11-27T13:10:18.286Z,961.46
2017-11-27T13:12:11.627Z,961.40
2017-11-27T13:13:11.627Z,961.47
2017-11-27T13:15:05.019Z,961.42
2017-11-27T13:16:05.036Z,961.35
2017-11-27T13:17:58.403Z,961.26
2017-11-27T13:18:58.405Z,961.30
2017-11-27T13:20:51.773Z,961.30
2017-11-27T13:21:51.801Z,961.25
2017-11-27T13:23:45.175Z,961.33
2017-11-27T13:24:45.159Z,961.23
2017-11-27T13:26:38.544Z,961.25
2017-11-27T13:27:38.546Z,961.31
2017-11-27T13:29:31.451Z,961.27
2017-11-27T13:30:31.439Z,961.26
2017-11-27T13:32:24.837Z,961.19
2017-11-27T13:33:24.822Z,961.24
2017-11-27T13:35:18.223Z,961.20
2017-11-27T13:36:18.213Z,961.23
2017-11-27T13:38:11.114Z,961.13
2017-11-27T13:39:11.096Z,961.10
2017-11-27T13:41:04.489Z,961.12
2017-11-27T13:42:04.498Z,961.08
2017-11-27T13:43:57.913Z,961.00
2017-11-27T13:44:57.898Z,960.99
2017-11-27T13:46:51.281Z,960.94
2017-11-27T13:47:51.284Z,960.93
2017-11-27T13:49:44.683Z,960.87
2017-11-27T13:50:44.681Z,960.87
2017-11-27T13:52:38.055Z,960.83
2017-11-27T13:53:38.059Z,960.84
2017-11-27T13:55:31.462Z,960.82
2017-11-27T13:56:31.440Z,960.78
2017-11-27T13:58:24.860Z,960.80
2017-11-27T13:59:24.860Z,960.81
2017-11-27T14:01:18.263Z,960.79
2017-11-27T14:02:18.247Z,960.79
2017-11-27T14:04:11.671Z,960.78
2017-11-27T14:05:11.631Z,960.83
2017-11-27T14:07:05.049Z,960.75
2017-11-27T14:08:05.025Z,960.73
2017-11-27T14:09:58.419Z,960.71
2017-11-27T14:10:58.425Z,960.72
2017-11-27T14:12:52.036Z,960.64
2017-11-27T14:13:51.808Z,960.66
2017-11-27T14:15:45.209Z,960.61
2017-11-27T14:16:45.193Z,960.58
2017-11-27T14:18:38.575Z,960.53
2017-11-27T14:19:38.591Z,960.53
2017-11-27T14:21:32.001Z,960.54
2017-11-27T14:22:31.981Z,960.48
2017-11-27T14:24:25.373Z,960.53
2017-11-27T14:25:25.364Z,960.54
2017-11-27T14:27:18.277Z,960.54
2017-11-27T14:28:18.254Z,960.55
2017-11-27T14:30:11.649Z,960.52
2017-11-27T14:31:11.648Z,960.50
2017-11-27T14:33:05.048Z,960.52
2017-11-27T14:34:05.028Z,960.55
2017-11-27T14:35:58.413Z,960.55
2017-11-27T14:36:58.413Z,960.58
2017-11-27T14:38:51.826Z,960.59
2017-11-27T14:39:51.810Z,960.59
2017-11-27T14:41:45.207Z,960.52
2017-11-27T14:42:45.197Z,960.59
2017-11-27T14:44:38.597Z,960.56
2017-11-27T14:45:38.581Z,960.56
2017-11-27T14:47:31.962Z,960.55
2017-11-27T14:48:31.964Z,960.51
2017-11-27T14:50:25.371Z,960.51
2017-11-27T14:51:25.355Z,960.48
2017-11-27T14:53:18.776Z,960.43
2017-11-27T14:54:18.762Z,960.44
2017-11-27T14:56:12.136Z,960.41
2017-11-27T14:57:12.126Z,960.40
2017-11-27T14:59:06.629Z,960.43
2017-11-27T15:00:05.525Z,960.44
2017-11-27T15:01:58.902Z,960.42
2017-11-27T15:02:58.910Z,960.38
2017-11-27T15:04:52.365Z,960.44
2017-11-27T15:05:52.362Z,960.41
2017-11-27T15:07:45.720Z,960.37
2017-11-27T15:08:45.719Z,960.36
2017-11-27T15:10:39.123Z,960.37
2017-11-27T15:11:39.103Z,960.34
2017-11-27T15:13:32.505Z,960.35
2017-11-27T15:14:32.536Z,960.28
2017-11-27T15:16:25.961Z,960.26
2017-11-27T15:17:25.884Z,960.29
2017-11-27T15:19:20.292Z,960.30
2017-11-27T15:20:20.300Z,960.30
2017-11-27T15:22:13.722Z,960.26
2017-11-27T15:23:13.730Z,960.30
2017-11-27T15:25:07.083Z,960.27
2017-11-27T15:26:07.065Z,960.30
2017-11-27T15:28:00.436Z,960.32
2017-11-27T15:29:00.443Z,960.29
2017-11-27T15:30:54.457Z,960.26
2017-11-27T15:31:54.449Z,960.32
2017-11-27T15:33:47.853Z,960.26
2017-11-27T15:34:47.836Z,960.34
2017-11-27T15:36:41.252Z,960.30
2017-11-27T15:37:41.255Z,960.29
2017-11-27T15:39:34.646Z,960.35
2017-11-27T15:40:34.645Z,960.27
2017-11-27T15:42:29.487Z,960.30
2017-11-27T15:43:29.179Z,960.28
2017-11-27T15:45:22.557Z,960.29
2017-11-27T15:46:22.740Z,960.27
2017-11-27T15:48:16.195Z,960.34
2017-11-27T15:49:15.960Z,960.29
2017-11-27T15:51:09.611Z,960.29
2017-11-27T15:52:18.012Z,960.22
2017-11-27T15:54:03.594Z,960.20
2017-11-27T15:55:03.630Z,960.21
2017-11-27T15:56:57.016Z,960.20
2017-11-27T15:57:56.999Z,960.21
2017-11-27T15:59:50.460Z,960.12
2017-11-27T16:00:50.394Z,960.12
2017-11-27T16:02:43.794Z,960.11
2017-11-27T16:03:43.780Z,960.12
2017-11-27T16:05:37.163Z,960.14
2017-11-27T16:06:37.175Z,960.32
2017-11-27T16:08:30.574Z,960.08
2017-11-27T16:09:30.556Z,960.05
2017-11-27T16:11:23.940Z,960.05
2017-11-27T16:12:23.941Z,960.02
2017-11-27T16:14:17.356Z,960.00
2017-11-27T16:15:17.332Z,960.05
2017-11-27T16:17:10.722Z,959.96
2017-11-27T16:18:10.718Z,959.96
2017-11-27T16:20:04.131Z,959.97
2017-11-27T16:21:04.110Z,959.94
2017-11-27T16:22:57.513Z,959.85
2017-11-27T16:23:57.496Z,959.83
2017-11-27T16:25:50.881Z,959.83
2017-11-27T16:26:50.880Z,959.90
2017-11-27T16:28:44.300Z,959.84
2017-11-27T16:29:44.283Z,959.83
2017-11-27T16:31:37.796Z,959.86
2017-11-27T16:32:37.835Z,959.84
2017-11-27T16:34:32.086Z,959.94
2017-11-27T16:35:32.119Z,959.75
2017-11-27T16:37:25.447Z,959.73
2017-11-27T16:38:25.468Z,959.67
2017-11-27T16:40:18.999Z,959.68
2017-11-27T16:41:18.903Z,959.68
2017-11-27T16:43:12.303Z,959.71
2017-11-27T16:44:12.321Z,959.63
2017-11-27T16:46:05.627Z,959.59
2017-11-27T16:47:06.253Z,959.64
2017-11-27T16:48:59.134Z,959.54
2017-11-27T16:49:59.046Z,959.53
2017-11-27T16:51:52.417Z,959.52
2017-11-27T16:52:52.393Z,959.59
2017-11-27T16:54:45.783Z,959.57
2017-11-27T16:55:45.782Z,959.48
2017-11-27T16:57:39.194Z,959.51
2017-11-27T16:58:39.173Z,959.55
2017-11-27T17:00:32.573Z,959.52
2017-11-27T17:01:32.554Z,959.50
2017-11-27T17:03:25.937Z,959.50
2017-11-27T17:04:25.936Z,959.47
2017-11-27T17:06:19.338Z,959.44
2017-11-27T17:07:19.319Z,959.49
2017-11-27T17:09:12.735Z,959.38
2017-11-27T17:10:12.710Z,959.44
2017-11-27T17:12:06.132Z,959.46
2017-11-27T17:13:06.108Z,959.50
2017-11-27T17:14:59.489Z,959.43
2017-11-27T17:15:59.481Z,959.44
2017-11-27T17:17:52.892Z,959.36
2017-11-27T17:18:52.873Z,959.33
2017-11-27T17:20:46.270Z,959.37
2017-11-27T17:21:46.285Z,959.37
2017-11-27T17:23:39.674Z,959.35
2017-11-27T17:24:39.656Z,959.29
2017-11-27T17:26:33.033Z,959.30
2017-11-27T17:27:33.036Z,959.29
2017-11-27T17:29:26.433Z,959.22
2017-11-27T17:30:26.415Z,959.22
2017-11-27T17:32:19.815Z,959.18
2017-11-27T17:33:19.806Z,959.20
2017-11-27T17:35:13.206Z,959.11
2017-11-27T17:36:13.186Z,959.00
2017-11-27T17:38:06.600Z,959.03
2017-11-27T17:39:06.584Z,959.04
2017-11-27T17:40:59.969Z,959.00
2017-11-27T17:41:59.987Z,958.99
2017-11-27T17:43:53.387Z,959.00
2017-11-27T17:44:53.371Z,959.03
2017-11-27T17:46:46.753Z,958.94
2017-11-27T17:47:46.747Z,958.94
2017-11-27T17:49:40.147Z,958.88
2017-11-27T17:50:40.131Z,958.93
2017-11-27T17:52:33.512Z,958.91
2017-11-27T17:53:33.512Z,958.88
2017-11-27T17:55:27.058Z,958.88
2017-11-27T17:56:26.896Z,958.84
2017-11-27T17:58:20.289Z,958.86
2017-11-27T17:59:20.303Z,958.78
2017-11-27T18:01:13.687Z,958.77